createdAt,value
2018-12-11T00:00:46.780Z,94482.75
2018-12-11T00:03:14.294Z,94475.15
2018-12-11T00:05:42.281Z,94483.30
2018-12-11T00:08:09.807Z,94477.13
2018-12-11T00:10:37.308Z,94479.94
2018-12-11T00:13:05.148Z,94487.53
2018-12-11T00:15:32.988Z,94486.34
2018-12-11T00:18:00.495Z,94494.84
2018-12-11T00:20:28.265Z,94497.04
2018-12-11T00:22:55.775Z,94495.44
2018-12-11T00:25:23.275Z,94501.17
2018-12-11T00:27:51.776Z,94502.89
2018-12-11T00:30:19.401Z,94503.66
2018-12-11T00:32:46.912Z,94505.77
2018-12-11T00:35:14.642Z,94506.47
2018-12-11T00:37:43.220Z,94510.16
2018-12-11T00:40:10.751Z,94512.36
2018-12-11T00:42:38.622Z,94514.58
2018-12-11T00:45:06.374Z,94506.95
2018-12-11T00:47:33.871Z,94502.02
2018-12-11T00:50:01.636Z,94505.56
2018-12-11T00:52:29.153Z,94496.82
2018-12-11T00:54:56.661Z,94496.93
2018-12-11T00:57:24.206Z,94501.35
2018-12-11T00:59:51.718Z,94502.62
2018-12-11T01:02:19.369Z,94493.05
2018-12-11T01:04:47.544Z,94493.27
2018-12-11T01:07:15.042Z,94488.11
2018-12-11T01:09:42.562Z,94493.05
2018-12-11T01:12:10.420Z,94484.60
2018-12-11T01:14:37.939Z,94485.19
2018-12-11T01:17:05.445Z,94483.90
2018-12-11T01:19:32.982Z,94487.15
2018-12-11T01:22:00.492Z,94493.99
2018-12-11T01:24:28.022Z,94493.92
2018-12-11T01:26:55.885Z,94489.36
2018-12-11T01:29:23.389Z,94485.48
2018-12-11T01:31:50.890Z,94493.92
2018-12-11T01:34:18.427Z,94489.65
2018-12-11T01:36:45.936Z,94487.64
2018-12-11T01:39:13.445Z,94485.92
2018-12-11T01:41:41.348Z,94477.88
2018-12-11T01:44:08.857Z,94483.95
2018-12-11T01:46:36.600Z,94479.96
2018-12-11T01:49:04.535Z,94475.70
2018-12-11T01:51:32.308Z,94483.63
2018-12-11T01:53:59.847Z,94478.88
2018-12-11T01:56:27.380Z,94478.52
2018-12-11T01:58:55.191Z,94478.25
2018-12-11T02:01:22.687Z,94478.25
2018-12-11T02:03:50.195Z,94470.32
2018-12-11T02:06:17.995Z,94473.67
2018-12-11T02:08:45.514Z,94470.67
2018-12-11T02:11:13.015Z,94472.73
2018-12-11T02:13:40.574Z,94481.08
2018-12-11T02:16:08.104Z,94470.34
2018-12-11T02:18:35.645Z,94472.34
2018-12-11T02:21:03.358Z,94483.27
2018-12-11T02:23:30.879Z,94486.49
2018-12-11T02:25:58.404Z,94481.27
2018-12-11T02:28:26.400Z,94485.20
2018-12-11T02:30:54.166Z,94481.72
2018-12-11T02:33:21.733Z,94487.00
2018-12-11T02:35:49.935Z,94479.23
2018-12-11T02:38:17.441Z,94479.66
2018-12-11T02:40:44.952Z,94478.06
2018-12-11T02:43:12.503Z,94481.87
2018-12-11T02:45:40.013Z,94485.52
2018-12-11T02:48:07.535Z,94472.20
2018-12-11T02:50:35.393Z,94469.32
2018-12-11T02:53:02.912Z,94471.32
2018-12-11T02:55:44.657Z,94470.09
2018-12-11T02:58:12.239Z,94465.41
2018-12-11T03:00:39.758Z,94470.28
2018-12-11T03:03:07.292Z,94466.75
2018-12-11T03:05:34.846Z,94473.20
2018-12-11T03:08:02.347Z,94472.86
2018-12-11T03:10:29.846Z,94473.17
2018-12-11T03:12:57.888Z,94470.35
2018-12-11T03:15:25.406Z,94460.41
2018-12-11T03:17:52.903Z,94472.74
2018-12-11T03:20:20.518Z,94471.83
2018-12-11T03:22:48.008Z,94473.52
2018-12-11T03:25:15.519Z,94470.93
2018-12-11T03:27:44.079Z,94476.15
2018-12-11T03:30:11.618Z,94478.14
2018-12-11T03:32:39.181Z,94475.51
2018-12-11T03:35:07.069Z,94481.55
2018-12-11T03:37:34.575Z,94478.98
2018-12-11T03:40:02.083Z,94479.69
2018-12-11T03:42:29.961Z,94482.97
2018-12-11T03:44:57.487Z,94491.31
2018-12-11T03:47:24.996Z,94478.85
2018-12-11T03:49:52.556Z,94494.47
2018-12-11T03:52:21.588Z,94495.64
2018-12-11T03:54:49.498Z,94499.54
2018-12-11T03:57:17.287Z,94494.16
2018-12-11T03:59:44.793Z,94506.50
2018-12-11T04:02:12.322Z,94502.70
2018-12-11T04:04:39.988Z,94499.87
2018-12-11T04:07:07.507Z,94495.23
2018-12-11T04:09:35.051Z,94502.51
2018-12-11T04:12:02.707Z,94503.98
2018-12-11T04:14:30.203Z,94496.52
2018-12-11T04:16:57.727Z,94504.93
2018-12-11T04:19:25.265Z,94505.52
2018-12-11T04:21:52.775Z,94505.33
2018-12-11T04:24:20.269Z,94511.50
2018-12-11T04:26:47.874Z,94511.31
2018-12-11T04:29:15.386Z,94519.66
2018-12-11T04:31:42.938Z,94522.88
2018-12-11T04:34:10.470Z,94520.81
2018-12-11T04:36:37.967Z,94519.39
2018-12-11T04:39:06.327Z,94520.23
2018-12-11T04:41:34.175Z,94526.80
2018-12-11T04:44:01.776Z,94537.66
2018-12-11T04:46:29.274Z,94538.55
2018-12-11T04:48:57.055Z,94537.13
2018-12-11T04:51:24.553Z,94529.84
2018-12-11T04:53:52.066Z,94545.04
2018-12-11T04:56:19.626Z,94551.73
2018-12-11T04:58:47.140Z,94549.86
2018-12-11T05:01:14.636Z,94555.31
2018-12-11T05:03:42.172Z,94552.27
2018-12-11T05:06:09.671Z,94550.86
2018-12-11T05:08:37.180Z,94550.67
2018-12-11T05:11:04.908Z,94549.38
2018-12-11T05:13:32.451Z,94546.89
2018-12-11T05:16:00.077Z,94555.17
2018-12-11T05:18:27.896Z,94562.50
2018-12-11T05:20:55.412Z,94558.94
2018-12-11T05:23:22.930Z,94555.27
2018-12-11T05:25:51.103Z,94563.23
2018-12-11T05:28:19.649Z,94557.26
2018-12-11T05:30:47.217Z,94565.78
2018-12-11T05:33:15.020Z,94566.52
2018-12-11T05:35:42.516Z,94573.69
2018-12-11T05:38:10.030Z,94575.80
2018-12-11T05:40:37.563Z,94580.25
2018-12-11T05:43:05.227Z,94591.58
2018-12-11T05:45:32.786Z,94588.44
2018-12-11T05:48:00.654Z,94589.97
2018-12-11T05:50:28.423Z,94598.85
2018-12-11T05:52:55.927Z,94595.18
2018-12-11T05:55:23.494Z,94587.90
2018-12-11T05:57:51.098Z,94608.14
2018-12-11T06:00:18.641Z,94599.81
2018-12-11T06:02:46.224Z,94600.66
2018-12-11T06:05:13.779Z,94610.36
2018-12-11T06:07:41.309Z,94606.23
2018-12-11T06:10:08.851Z,94607.88
2018-12-11T06:12:36.701Z,94599.91
2018-12-11T06:15:04.385Z,94611.63
2018-12-11T06:17:32.151Z,94608.54
2018-12-11T06:19:59.967Z,94609.70
2018-12-11T06:22:27.525Z,94617.46
2018-12-11T06:24:55.049Z,94621.70
2018-12-11T06:27:23.225Z,94628.34
2018-12-11T06:29:50.820Z,94616.69
2018-12-11T06:32:18.345Z,94624.95
2018-12-11T06:34:46.059Z,94624.68
2018-12-11T06:37:14.117Z,94623.69
2018-12-11T06:39:41.644Z,94629.38
2018-12-11T06:42:09.150Z,94625.09
2018-12-11T06:44:36.912Z,94640.88
2018-12-11T06:47:04.424Z,94650.63
2018-12-11T06:49:31.937Z,94648.98
2018-12-11T06:51:59.903Z,94654.91
2018-12-11T06:54:27.458Z,94652.48
2018-12-11T06:56:54.981Z,94659.45
2018-12-11T06:59:22.899Z,94660.37
2018-12-11T07:01:50.462Z,94663.86
2018-12-11T07:04:18.031Z,94662.59
2018-12-11T07:06:45.816Z,94661.69
2018-12-11T07:09:13.339Z,94662.44
2018-12-11T07:11:41.342Z,94667.72
2018-12-11T07:14:08.887Z,94667.78
2018-12-11T07:16:36.828Z,94675.55
2018-12-11T07:19:04.725Z,94678.71
2018-12-11T07:21:32.489Z,94683.30
2018-12-11T07:24:00.258Z,94691.90
2018-12-11T07:26:27.771Z,94691.72
2018-12-11T07:28:55.315Z,94700.28
2018-12-11T07:31:23.116Z,94707.69
2018-12-11T07:33:51.065Z,94697.94
2018-12-11T07:36:18.768Z,94702.92
2018-12-11T07:38:46.773Z,94702.11
2018-12-11T07:41:14.299Z,94713.80
2018-12-11T07:43:41.817Z,94708.95
2018-12-11T07:46:09.423Z,94707.48
2018-12-11T07:48:36.926Z,94701.02
2018-12-11T07:51:04.467Z,94706.65
2018-12-11T07:53:32.823Z,94700.77
2018-12-11T07:56:00.539Z,94715.70
2018-12-11T07:58:28.295Z,94713.33
2018-12-11T08:00:56.362Z,94724.81
2018-12-11T08:03:23.913Z,94713.64
2018-12-11T08:05:51.440Z,94714.61
2018-12-11T08:08:19.326Z,94721.13
2018-12-11T08:10:46.850Z,94726.44
2018-12-11T08:13:14.370Z,94726.12
2018-12-11T08:15:42.236Z,94726.95
2018-12-11T08:18:10.178Z,94719.95
2018-12-11T08:20:37.745Z,94701.41
2018-12-11T08:23:05.536Z,94723.55
2018-12-11T08:25:33.169Z,94722.03
2018-12-11T08:28:00.688Z,94714.56
2018-12-11T08:30:28.268Z,94721.02
2018-12-11T08:32:55.776Z,94714.44
2018-12-11T08:35:23.291Z,94722.33
2018-12-11T08:37:50.832Z,94729.39
2018-12-11T08:40:18.352Z,94717.08
2018-12-11T08:42:45.882Z,94718.49
2018-12-11T08:45:13.766Z,94719.55
2018-12-11T08:47:41.296Z,94722.67
2018-12-11T08:50:09.080Z,94710.83
2018-12-11T08:52:36.901Z,94714.13
2018-12-11T08:55:04.594Z,94715.86
2018-12-11T08:57:32.127Z,94724.84
2018-12-11T08:59:59.914Z,94725.33
2018-12-11T09:02:27.543Z,94720.07
2018-12-11T09:04:55.080Z,94722.19
2018-12-11T09:07:22.923Z,94721.86
2018-12-11T09:09:50.440Z,94712.64
2018-12-11T09:12:17.995Z,94704.52
2018-12-11T09:14:45.914Z,94697.84
2018-12-11T09:17:13.434Z,94702.92
2018-12-11T09:19:40.947Z,94699.97
2018-12-11T09:22:08.722Z,94694.53
2018-12-11T09:24:36.397Z,94703.02
2018-12-11T09:27:03.912Z,94697.03
2018-12-11T09:29:31.798Z,94693.99
2018-12-11T09:32:00.073Z,94691.28
2018-12-11T09:34:27.621Z,94686.27
2018-12-11T09:36:55.191Z,94687.56
2018-12-11T09:39:22.756Z,94675.84
2018-12-11T09:41:50.311Z,94688.00
2018-12-11T09:44:18.277Z,94684.64
2018-12-11T09:46:45.845Z,94683.55
2018-12-11T09:49:13.387Z,94674.86
2018-12-11T09:51:40.960Z,94687.67
2018-12-11T09:54:08.467Z,94686.33
2018-12-11T09:56:36.084Z,94679.06
2018-12-11T09:59:03.786Z,94679.20
2018-12-11T10:01:31.308Z,94678.45
2018-12-11T10:03:58.890Z,94689.66
2018-12-11T10:06:26.459Z,94682.28
2018-12-11T10:08:55.978Z,94673.02
2018-12-11T10:11:23.600Z,94670.75
2018-12-11T10:13:51.687Z,94660.08
2018-12-11T10:16:19.241Z,94663.44
2018-12-11T10:18:46.764Z,94659.64
2018-12-11T10:21:14.600Z,94652.23
2018-12-11T10:23:42.845Z,94664.14
2018-12-11T10:26:10.390Z,94660.00
2018-12-11T10:28:37.945Z,94662.66
2018-12-11T10:31:05.493Z,94658.64
2018-12-11T10:33:32.995Z,94651.36
2018-12-11T10:36:01.790Z,94660.59
2018-12-11T10:38:29.373Z,94659.94
2018-12-11T10:40:57.501Z,94650.26
2018-12-11T10:43:25.374Z,94656.60
2018-12-11T10:45:52.934Z,94647.20
2018-12-11T10:48:20.493Z,94639.01
2018-12-11T10:50:48.401Z,94649.04
2018-12-11T10:53:15.914Z,94652.54
2018-12-11T10:55:43.446Z,94643.08
2018-12-11T10:58:11.047Z,94642.31
2018-12-11T11:00:44.681Z,94646.84
2018-12-11T11:03:12.530Z,94641.88
2018-12-11T11:05:40.087Z,94649.13
2018-12-11T11:08:07.616Z,94648.55
2018-12-11T11:10:35.527Z,94648.70
2018-12-11T11:13:03.072Z,94649.83
2018-12-11T11:15:30.718Z,94654.19
2018-12-11T11:17:58.366Z,94646.54
2018-12-11T11:20:25.871Z,94648.91
2018-12-11T11:22:53.408Z,94646.57
2018-12-11T11:25:21.303Z,94647.09
2018-12-11T11:27:48.842Z,94636.77
2018-12-11T11:30:16.364Z,94649.91
2018-12-11T11:32:44.074Z,94648.32
2018-12-11T11:35:11.604Z,94640.02
2018-12-11T11:37:39.141Z,94654.64
2018-12-11T11:40:06.847Z,94661.48
2018-12-11T11:42:34.518Z,94659.47
2018-12-11T11:45:02.355Z,94658.75
2018-12-11T11:47:30.356Z,94656.05
2018-12-11T11:49:57.879Z,94655.09
2018-12-11T11:52:25.413Z,94662.53
2018-12-11T11:54:52.982Z,94665.67
2018-12-11T11:57:20.515Z,94669.78
2018-12-11T11:59:48.023Z,94667.53
2018-12-11T12:02:15.849Z,94677.42
2018-12-11T12:04:43.371Z,94678.22
2018-12-11T12:07:10.916Z,94677.36
2018-12-11T12:09:38.815Z,94676.16
2018-12-11T12:12:06.371Z,94677.61
2018-12-11T12:14:33.934Z,94680.53
2018-12-11T12:17:01.505Z,94679.77
2018-12-11T12:19:29.016Z,94683.97
2018-12-11T12:21:56.520Z,94694.84
2018-12-11T12:24:24.346Z,94694.00
2018-12-11T12:26:51.971Z,94693.27
2018-12-11T12:29:19.491Z,94688.28
2018-12-11T12:31:47.138Z,94695.95
2018-12-11T12:34:14.729Z,94698.33
2018-12-11T12:36:42.903Z,94699.97
2018-12-11T12:39:10.785Z,94699.70
2018-12-11T12:41:38.332Z,94703.77
2018-12-11T12:44:06.025Z,94702.11
2018-12-11T12:46:33.766Z,94697.01
2018-12-11T12:49:01.276Z,94698.64
2018-12-11T12:51:28.796Z,94704.60
2018-12-11T12:53:56.349Z,94706.54
2018-12-11T12:56:23.903Z,94702.17
2018-12-11T12:58:51.452Z,94707.38
2018-12-11T13:01:19.351Z,94712.28
2018-12-11T13:03:47.645Z,94710.87
2018-12-11T13:06:15.283Z,94708.66
2018-12-11T13:08:42.931Z,94712.93
2018-12-11T13:11:10.466Z,94709.30
2018-12-11T13:13:38.058Z,94713.30
2018-12-11T13:16:06.034Z,94715.82
2018-12-11T13:18:33.591Z,94709.36
2018-12-11T13:21:01.141Z,94711.42
2018-12-11T13:23:29.001Z,94717.88
2018-12-11T13:25:56.524Z,94717.81
2018-12-11T13:28:24.059Z,94723.86
2018-12-11T13:30:51.616Z,94721.03
2018-12-11T13:33:19.243Z,94726.73
2018-12-11T13:35:46.913Z,94718.70
2018-12-11T13:38:14.688Z,94727.08
2018-12-11T13:40:42.521Z,94730.80
2018-12-11T13:43:10.135Z,94730.73
2018-12-11T13:45:38.088Z,94724.23
2018-12-11T13:48:05.741Z,94722.19
2018-12-11T13:50:33.408Z,94727.88
2018-12-11T13:53:00.987Z,94724.58
2018-12-11T13:55:28.535Z,94728.94
2018-12-11T13:57:56.099Z,94722.89
2018-12-11T14:00:23.634Z,94724.63
2018-12-11T14:02:51.722Z,94718.92
2018-12-11T14:05:19.504Z,94715.42
2018-12-11T14:07:47.012Z,94716.98
2018-12-11T14:10:14.525Z,94719.22
2018-12-11T14:12:42.056Z,94727.09
2018-12-11T14:15:09.743Z,94724.95
2018-12-11T14:17:37.295Z,94726.87
2018-12-11T14:20:06.503Z,94725.91
2018-12-11T14:22:34.020Z,94731.32
2018-12-11T14:25:01.644Z,94736.02
2018-12-11T14:27:29.709Z,94731.55
2018-12-11T14:29:57.255Z,94736.23
2018-12-11T14:32:24.775Z,94734.70
2018-12-11T14:34:52.374Z,94742.52
2018-12-11T14:37:19.883Z,94752.03
2018-12-11T14:39:47.385Z,94746.54
2018-12-11T14:42:15.237Z,94749.45
2018-12-11T14:44:42.761Z,94750.50
2018-12-11T14:47:10.276Z,94750.50
2018-12-11T14:49:37.831Z,94758.91
2018-12-11T14:52:05.346Z,94756.98
2018-12-11T14:54:32.859Z,94757.55
2018-12-11T14:57:00.532Z,94746.36
2018-12-11T14:59:28.035Z,94751.23
2018-12-11T15:01:55.539Z,94740.09
2018-12-11T15:04:23.537Z,94744.48
2018-12-11T15:06:51.171Z,94744.38
2018-12-11T15:09:24.690Z,94745.40
2018-12-11T15:11:52.205Z,94752.16
2018-12-11T15:14:19.803Z,94754.94
2018-12-11T15:16:47.664Z,94751.35
2018-12-11T15:19:15.222Z,94753.86
2018-12-11T15:21:42.793Z,94754.11
2018-12-11T15:24:10.340Z,94758.78
2018-12-11T15:26:37.849Z,94755.92
2018-12-11T15:29:05.473Z,94752.67
2018-12-11T15:31:33.352Z,94750.95
2018-12-11T15:34:00.893Z,94750.80
2018-12-11T15:36:28.410Z,94746.09
2018-12-11T15:38:56.313Z,94760.74
2018-12-11T15:41:23.824Z,94756.50
2018-12-11T15:43:51.342Z,94757.23
2018-12-11T15:46:19.297Z,94770.38
2018-12-11T15:48:46.938Z,94770.84
2018-12-11T15:51:14.537Z,94772.03
2018-12-11T15:53:42.322Z,94774.15
2018-12-11T15:56:09.825Z,94768.75
2018-12-11T15:58:37.334Z,94764.70
2018-12-11T16:01:05.487Z,94780.52
2018-12-11T16:03:33.014Z,94771.84
2018-12-11T16:06:00.521Z,94772.80
2018-12-11T16:08:28.454Z,94778.94
2018-12-11T16:10:56.001Z,94778.97
2018-12-11T16:13:23.499Z,94784.56
2018-12-11T16:15:51.296Z,94781.67
2018-12-11T16:18:18.798Z,94791.69
2018-12-11T16:20:46.350Z,94789.77
2018-12-11T16:23:14.057Z,94792.88
2018-12-11T16:25:41.883Z,94795.42
2018-12-11T16:28:09.382Z,94800.11
2018-12-11T16:30:37.281Z,94798.38
2018-12-11T16:33:04.805Z,94798.22
2018-12-11T16:35:32.319Z,94804.70
2018-12-11T16:37:59.875Z,94800.27
2018-12-11T16:40:27.444Z,94802.80
2018-12-11T16:42:55.012Z,94793.56
2018-12-11T16:45:22.564Z,94793.17
2018-12-11T16:47:50.087Z,94799.14
2018-12-11T16:50:17.717Z,94801.11
2018-12-11T16:52:45.658Z,94807.84
2018-12-11T16:55:13.198Z,94807.69
2018-12-11T16:57:40.716Z,94794.04
2018-12-11T17:00:09.692Z,94784.25
2018-12-11T17:02:37.225Z,94817.26
2018-12-11T17:05:04.988Z,94823.06
2018-12-11T17:07:32.878Z,94816.70
2018-12-11T17:10:00.613Z,94823.06
2018-12-11T17:12:28.448Z,94827.66
2018-12-11T17:14:57.685Z,94817.26
2018-12-11T17:17:25.335Z,94814.17
2018-12-11T17:19:52.907Z,94815.69
2018-12-11T17:22:20.788Z,94817.03
2018-12-11T17:24:48.348Z,94824.33
2018-12-11T17:27:15.952Z,94810.64
2018-12-11T17:29:43.663Z,94811.80
2018-12-11T17:32:11.322Z,94826.25
2018-12-11T17:34:38.886Z,94809.74
2018-12-11T17:37:06.876Z,94824.52
2018-12-11T17:39:34.608Z,94808.27
2018-12-11T17:42:02.186Z,94814.59
2018-12-11T17:44:30.068Z,94828.05
2018-12-11T17:46:57.579Z,94821.14
2018-12-11T17:49:25.078Z,94829.03
2018-12-11T17:51:52.954Z,94831.90
2018-12-11T17:54:20.473Z,94835.20
2018-12-11T17:56:48.472Z,94834.43
2018-12-11T17:59:16.461Z,94833.69
2018-12-11T18:01:45.390Z,94831.77
2018-12-11T18:04:12.899Z,94842.17
2018-12-11T18:06:40.715Z,94832.92
2018-12-11T18:09:08.456Z,94842.55
2018-12-11T18:11:35.959Z,94854.30
2018-12-11T18:14:04.138Z,94852.73
2018-12-11T18:16:31.728Z,94857.00
2018-12-11T18:18:59.257Z,94859.06
2018-12-11T18:21:26.968Z,94858.33
2018-12-11T18:23:54.466Z,94868.17
2018-12-11T18:26:21.982Z,94872.41
2018-12-11T18:28:49.579Z,94870.48
2018-12-11T18:31:17.211Z,94877.45
2018-12-11T18:33:44.751Z,94875.71
2018-12-11T18:36:12.659Z,94859.77
2018-12-11T18:38:40.179Z,94862.06
2018-12-11T18:41:07.735Z,94871.50
2018-12-11T18:43:35.382Z,94864.40
2018-12-11T18:46:02.909Z,94871.58
2018-12-11T18:48:30.530Z,94872.13
2018-12-11T18:50:58.326Z,94870.56
2018-12-11T18:53:25.830Z,94862.72
2018-12-11T18:55:53.341Z,94870.16
2018-12-11T18:58:21.086Z,94876.72
2018-12-11T19:00:48.695Z,94875.79
2018-12-11T19:03:16.227Z,94872.70
2018-12-11T19:05:44.306Z,94869.81
2018-12-11T19:08:11.893Z,94871.58
2018-12-11T19:10:39.617Z,94871.19
2018-12-11T19:13:07.572Z,94867.75
2018-12-11T19:15:35.147Z,94874.48
2018-12-11T19:18:02.661Z,94877.97
2018-12-11T19:20:30.360Z,94877.61
2018-12-11T19:23:02.376Z,94878.23
2018-12-11T19:25:29.890Z,94875.73
2018-12-11T19:27:57.461Z,94879.60
2018-12-11T19:30:25.053Z,94881.33
2018-12-11T19:32:52.576Z,94863.45
2018-12-11T19:35:20.475Z,94872.50
2018-12-11T19:37:47.982Z,94869.82
2018-12-11T19:40:15.500Z,94869.24
2018-12-11T19:42:43.635Z,94873.33
2018-12-11T19:45:11.144Z,94868.89
2018-12-11T19:47:38.655Z,94870.27
2018-12-11T19:50:06.938Z,94872.00
2018-12-11T19:52:39.761Z,94873.34
2018-12-11T19:55:04.709Z,94872.36
2018-12-11T19:57:32.480Z,94874.48
2018-12-11T19:59:59.987Z,94877.97
2018-12-11T20:02:27.525Z,94872.37
2018-12-11T20:04:55.255Z,94877.02
2018-12-11T20:07:22.855Z,94877.98
2018-12-11T20:09:56.513Z,94879.92
2018-12-11T20:12:24.011Z,94880.88
2018-12-11T20:14:51.520Z,94882.83
2018-12-11T20:17:19.329Z,94883.60
2018-12-11T20:19:46.863Z,94885.75
2018-12-11T20:22:14.395Z,94885.17
2018-12-11T20:24:41.940Z,94882.28
2018-12-11T20:27:09.469Z,94887.89
2018-12-11T20:29:37.001Z,94881.52
2018-12-11T20:32:04.887Z,94887.30
2018-12-11T20:34:32.400Z,94883.45
2018-12-11T20:36:59.904Z,94885.95
2018-12-11T20:39:27.434Z,94890.38
2018-12-11T20:41:54.954Z,94887.69
2018-12-11T20:44:22.470Z,94890.00
2018-12-11T20:46:50.016Z,94888.48
2018-12-11T20:49:17.541Z,94891.74
2018-12-11T20:51:45.060Z,94892.91
2018-12-11T20:54:12.612Z,94896.54
2018-12-11T20:56:40.116Z,94887.91
2018-12-11T20:59:07.622Z,94897.67
2018-12-11T21:01:35.478Z,94892.67
2018-12-11T21:04:02.988Z,94899.38
2018-12-11T21:06:30.500Z,94888.64
2018-12-11T21:08:58.408Z,94899.77
2018-12-11T21:11:25.914Z,94903.80
2018-12-11T21:13:53.424Z,94897.61
2018-12-11T21:16:21.039Z,94904.53
2018-12-11T21:18:48.858Z,94903.73
2018-12-11T21:21:16.493Z,94911.22
2018-12-11T21:23:44.276Z,94906.58
2018-12-11T21:26:11.791Z,94907.70
2018-12-11T21:28:39.317Z,94903.84
2018-12-11T21:31:07.414Z,94902.85
2018-12-11T21:33:34.953Z,94907.22
2018-12-11T21:36:02.472Z,94904.28
2018-12-11T21:38:30.021Z,94901.36
2018-12-11T21:40:57.513Z,94899.98
2018-12-11T21:43:25.027Z,94903.59
2018-12-11T21:45:52.847Z,94904.70
2018-12-11T21:48:21.318Z,94908.45
2018-12-11T21:50:48.833Z,94906.91
2018-12-11T21:53:16.637Z,94901.70
2018-12-11T21:55:44.139Z,94906.84
2018-12-11T21:58:11.652Z,94913.02
2018-12-11T22:00:39.635Z,94912.34
2018-12-11T22:03:07.126Z,94901.16
2018-12-11T22:05:34.653Z,94904.41
2018-12-11T22:08:02.199Z,94901.45
2018-12-11T22:10:29.700Z,94905.50
2018-12-11T22:12:57.208Z,94899.72
2018-12-11T22:15:24.908Z,94896.34
2018-12-11T22:17:52.421Z,94894.45
2018-12-11T22:20:19.916Z,94897.95
2018-12-11T22:22:47.468Z,94904.63
2018-12-11T22:25:15.005Z,94910.29
2018-12-11T22:27:42.513Z,94904.89
2018-12-11T22:30:10.161Z,94906.44
2018-12-11T22:32:37.663Z,94904.41
2018-12-11T22:35:05.182Z,94903.16
2018-12-11T22:37:32.719Z,94905.86
2018-12-11T22:40:00.264Z,94904.63
2018-12-11T22:42:27.764Z,94904.50
2018-12-11T22:44:55.548Z,94902.16
2018-12-11T22:47:23.051Z,94897.92
2018-12-11T22:49:50.552Z,94902.70
2018-12-11T22:52:18.410Z,94891.94
2018-12-11T22:54:46.123Z,94891.29
2018-12-11T22:57:13.611Z,94890.45
2018-12-11T22:59:41.421Z,94886.63
2018-12-11T23:02:08.952Z,94888.48
2018-12-11T23:04:36.465Z,94884.85
2018-12-11T23:07:04.198Z,94878.14
2018-12-11T23:09:31.690Z,94877.52
2018-12-11T23:11:59.188Z,94879.11
2018-12-11T23:14:27.037Z,94872.08
2018-12-11T23:16:54.621Z,94878.68
2018-12-11T23:19:22.179Z,94874.59
2018-12-11T23:21:50.004Z,94882.42
2018-12-11T23:24:17.502Z,94884.89
2018-12-11T23:26:45.015Z,94887.17
2018-12-11T23:29:12.873Z,94885.90
2018-12-11T23:31:40.369Z,94893.80
2018-12-11T23:34:07.867Z,94895.81
2018-12-11T23:36:35.402Z,94891.68
2018-12-11T23:39:03.044Z,94900.95
2018-12-11T23:41:30.545Z,94900.59
2018-12-11T23:43:58.431Z,94902.59
2018-12-11T23:46:25.928Z,94904.11
2018-12-11T23:48:53.437Z,94901.24
2018-12-11T23:51:21.399Z,94903.14
2018-12-11T23:53:48.904Z,94900.55
2018-12-11T23:56:16.393Z,94902.13
2018-12-11T23:58:44.963Z,94907.17
